Time;durP1;ratioP1;P1;durP2;ratioP2;P2;SDS_P1;SDS_P2;PMS_P1;PMS_P2;Temp;Humidity;BMP_temperature;BMP_pressure;BME280_temperature;BME280_humidity;BME280_pressure;Samples;Min_cycle;Max_cycle;Signal;HPM_P1;HPM_P2
2022/11/16 00:02:05;;;;;;;24.77;17.33;;;;;;;7.73;88.91;98310.13;5108006;28;20044;-71
2022/11/16 00:04:33;;;;;;;23.65;16.40;;;;;;;7.73;88.96;98306.63;5107357;28;20044;-71
2022/11/16 00:07:02;;;;;;;27.80;19.92;;;;;;;7.73;88.81;98304.84;5107337;28;20074;-70
2022/11/16 00:09:30;;;;;;;29.85;18.88;;;;;;;7.57;89.05;98280.34;5107309;28;20036;-71
2022/11/16 00:11:59;;;;;;;25.60;17.73;;;;;;;7.54;89.06;98270.81;5107554;28;20074;-70
2022/11/16 00:14:29;;;;;;;26.23;17.77;;;;;;;7.70;89.14;98294.47;5107212;28;20036;-71
2022/11/16 00:16:55;;;;;;;28.70;18.63;;;;;;;7.67;89.21;98286.75;5107417;28;20296;-72
2022/11/16 00:19:22;;;;;;;29.42;19.10;;;;;;;7.67;89.19;98284.13;5107032;28;20044;-73
2022/11/16 00:21:51;;;;;;;26.90;18.50;;;;;;;4.56;88.83;97762.13;5107154;28;20358;-71
2022/11/16 00:24:20;;;;;;;28.17;19.70;;;;;;;7.57;89.14;98269.78;5107205;28;20288;-71
2022/11/16 00:26:47;;;;;;;24.98;18.60;;;;;;;7.69;89.26;98285.72;5107521;28;20043;-71
2022/11/16 00:29:15;;;;;;;30.73;20.50;;;;;;;7.24;89.09;98204.94;5106043;28;20036;-71
2022/11/16 00:31:42;;;;;;;30.30;19.58;;;;;;;7.06;89.31;98177.91;5105618;28;20195;-72
2022/11/16 00:34:09;;;;;;;30.75;21.27;;;;;;;7.67;89.40;98279.69;5107111;28;20292;-71
2022/11/16 00:36:36;;;;;;;26.88;18.48;;;;;;;7.66;89.55;98271.88;5105926;28;20215;-71
2022/11/16 00:39:04;;;;;;;31.30;20.45;;;;;;;6.91;89.49;98155.09;5105846;28;20301;-72
2022/11/16 00:41:31;;;;;;;33.65;22.20;;;;;;;7.64;89.71;98277.25;5105883;28;20326;-71
2022/11/16 00:43:58;;;;;;;29.27;19.00;;;;;;;7.65;89.47;98272.81;5106785;28;20043;-71
2022/11/16 00:46:24;;;;;;;31.13;20.67;;;;;;;7.66;89.64;98271.88;5106570;28;20044;-72
2022/11/16 00:48:51;;;;;;;27.90;17.95;;;;;;;7.69;89.60;98285.72;5106519;28;20278;-72
2022/11/16 00:51:18;;;;;;;27.35;18.80;;;;;;;7.68;89.40;98277.91;5105542;28;20238;-71
2022/11/16 00:53:44;;;;;;;31.38;20.40;;;;;;;7.37;89.45;98223.53;5106441;28;20203;-71
2022/11/16 00:56:12;;;;;;;26.90;18.80;;;;;;;7.67;89.49;98276.22;5105562;28;20036;-72
2022/11/16 00:58:39;;;;;;;28.45;20.50;;;;;;;7.66;89.82;98280.63;5106349;28;20050;-71
2022/11/16 01:01:08;;;;;;;33.25;20.52;;;;;;;7.69;89.47;98275.19;5106568;28;20046;-71
2022/11/16 01:03:36;;;;;;;33.17;20.42;;;;;;;7.71;89.42;98275.09;5105428;28;20036;-71
2022/11/16 01:06:03;;;;;;;33.53;20.83;;;;;;;7.72;89.42;98266.22;5105619;28;20299;-72
2022/11/16 01:08:29;;;;;;;29.70;21.10;;;;;;;7.73;89.25;98269.72;5105345;28;20043;-72
2022/11/16 01:12:07;;;;;;;31.02;20.65;;;;;;;7.73;89.40;98264.44;5105252;28;20047;-72
2022/11/16 01:13:44;;;;;;;34.65;21.95;;;;;;;7.72;89.41;98260.94;5105927;28;20119;-73
2022/11/16 01:16:13;;;;;;;31.77;20.08;;;;;;;7.72;89.37;98255.69;5105764;28;20036;-72
2022/11/16 01:18:40;;;;;;;33.80;21.83;;;;;;;6.87;89.13;98123.78;5106361;28;20044;-72
2022/11/16 01:21:07;;;;;;;33.25;21.42;;;;;;;7.53;89.27;98215.56;5106348;28;20180;-72
2022/11/16 01:23:34;;;;;;;31.85;20.55;;;;;;;7.44;89.58;98201.13;5105996;28;20064;-73
2022/11/16 01:26:01;;;;;;;37.05;22.42;;;;;;;7.70;89.38;98250.50;5106473;28;20040;-72
2022/11/16 01:28:29;;;;;;;34.83;20.60;;;;;;;7.70;89.47;98268.09;5106121;28;20055;-72
2022/11/16 01:30:57;;;;;;;33.75;20.88;;;;;;;7.71;89.43;98256.63;5106224;28;20314;-72
2022/11/16 01:33:24;;;;;;;29.42;19.10;;;;;;;7.72;89.50;98260.09;5106194;28;20058;-73
2022/11/16 01:35:51;;;;;;;34.83;19.35;;;;;;;7.74;89.44;98250.31;5106093;28;20218;-72
2022/11/16 01:38:18;;;;;;;31.17;21.02;;;;;;;7.75;89.47;98249.38;5105914;28;20238;-71
2022/11/16 01:40:45;;;;;;;31.65;20.17;;;;;;;7.74;89.36;98243.25;5106291;28;20040;-72
2022/11/16 01:43:16;;;;;;;31.02;19.60;;;;;;;7.75;89.25;98236.19;5105654;28;20162;-72
2022/11/16 01:45:44;;;;;;;35.47;22.90;;;;;;;7.74;89.29;98231.84;5105649;28;20287;-72
2022/11/16 01:48:14;;;;;;;35.40;22.95;;;;;;;7.73;89.17;98228.38;5105433;28;20227;-72
2022/11/16 01:50:42;;;;;;;34.90;23.30;;;;;;;7.70;89.32;98221.50;5105511;28;20097;-72
2022/11/16 01:53:12;;;;;;;34.80;20.80;;;;;;;6.49;89.10;98018.09;5105478;28;20063;-72
2022/11/16 01:55:41;;;;;;;36.65;23.60;;;;;;;7.68;89.40;98214.63;5105864;28;20090;-71
2022/11/16 01:58:10;;;;;;;31.23;20.35;;;;;;;7.69;89.42;98217.16;5104784;28;20296;-72
2022/11/16 02:00:37;;;;;;;29.85;20.13;;;;;;;7.70;89.31;98215.38;5105522;28;20040;-71
2022/11/16 02:03:04;;;;;;;32.03;18.92;;;;;;;7.71;89.28;98211.78;5105500;28;20040;-71
2022/11/16 02:05:45;;;;;;;31.38;19.88;;;;;;;7.69;89.38;98211.88;5105454;28;20059;-71
2022/11/16 02:11:28;;;;;;;31.70;20.50;;;;;;;7.64;89.44;98199.91;5105373;28;20051;-71
2022/11/16 02:14:10;;;;;;;34.08;21.00;;;;;;;7.63;89.57;98195.59;5105681;28;20052;-72
2022/11/16 02:16:47;;;;;;;31.92;19.90;;;;;;;7.63;89.80;98200.88;5105294;28;20047;-71
2022/11/16 02:19:43;;;;;;;29.23;19.95;;;;;;;7.62;89.56;98186.84;5105410;28;20181;-71
2022/11/16 02:22:25;;;;;;;30.63;19.98;;;;;;;7.61;89.62;98181.66;5105338;28;20089;-71
2022/11/16 02:24:59;;;;;;;30.10;20.20;;;;;;;7.62;89.57;98173.66;5105287;28;20036;-71
2022/11/16 02:27:59;;;;;;;34.13;20.80;;;;;;;7.64;89.55;98160.38;5105579;28;20052;-71
2022/11/16 02:30:27;;;;;;;36.95;21.77;;;;;;;7.64;89.41;98163.00;5105559;28;20271;-71
2022/11/16 02:33:01;;;;;;;34.33;23.63;;;;;;;6.94;89.42;98038.19;5105178;28;20080;-72
2022/11/16 02:35:33;;;;;;;33.72;23.40;;;;;;;7.65;89.53;98155.00;5105257;28;20208;-72
2022/11/16 02:38:04;;;;;;;33.50;22.75;;;;;;;7.17;89.43;98084.19;5105491;28;20101;-71
2022/11/16 02:40:35;;;;;;;32.35;20.63;;;;;;;7.64;89.59;98152.44;5105993;28;20231;-71
2022/11/16 02:43:07;;;;;;;35.88;23.17;;;;;;;7.61;89.81;98145.59;5104340;28;20039;-71
2022/11/16 02:45:40;;;;;;;30.88;20.17;;;;;;;6.84;89.90;98016.81;5104223;28;20036;-72
2022/11/16 02:48:11;;;;;;;32.63;20.60;;;;;;;7.61;89.83;98132.41;5105128;28;20040;-72
2022/11/16 02:50:39;;;;;;;33.42;22.42;;;;;;;7.62;89.74;98130.59;5104348;28;20315;-71
2022/11/16 02:53:06;;;;;;;35.50;21.85;;;;;;;7.60;89.64;98135.13;5105408;28;20047;-71
2022/11/16 02:55:34;;;;;;;34.42;21.10;;;;;;;7.44;89.80;98102.75;5107808;28;20036;-71
2022/11/16 02:58:02;;;;;;;31.48;19.65;;;;;;;7.60;89.68;98128.06;5107915;28;20234;-72
2022/11/16 03:00:37;;;;;;;34.78;22.88;;;;;;;7.58;89.67;98124.69;5108721;28;20066;-72
2022/11/16 03:03:17;;;;;;;30.75;20.45;;;;;;;7.59;89.75;98121.09;5108903;28;20063;-72
2022/11/16 03:05:48;;;;;;;37.00;21.55;;;;;;;7.61;89.69;98113.09;5108517;28;20089;-71
2022/11/16 03:08:20;;;;;;;37.63;23.00;;;;;;;7.61;89.55;98123.63;5108637;28;20101;-71
2022/11/16 03:13:37;;;;;;;43.20;26.00;;;;;;;7.58;89.70;98108.84;5108352;28;20085;-72
2022/11/16 03:16:10;;;;;;;36.72;22.25;;;;;;;7.56;89.75;98105.47;5108081;28;20048;-71
2022/11/16 03:18:40;;;;;;;38.53;22.08;;;;;;;7.15;89.91;98034.22;5107778;28;20040;-71
2022/11/16 03:21:14;;;;;;;38.40;24.52;;;;;;;7.51;90.02;98101.44;5108386;28;20043;-71
2022/11/16 03:23:42;;;;;;;38.80;23.95;;;;;;;7.50;90.31;98110.28;5108286;28;20050;-70
2022/11/16 03:26:13;;;;;;;41.65;24.38;;;;;;;7.31;89.99;98079.75;5108416;28;20051;-71
2022/11/16 03:28:47;;;;;;;39.70;24.17;;;;;;;7.49;90.30;98112.06;5108497;28;20180;-71
2022/11/16 03:31:20;;;;;;;37.50;24.65;;;;;;;7.50;90.31;98120.81;5107650;28;20047;-71
2022/11/16 03:33:51;;;;;;;41.17;25.08;;;;;;;7.04;90.33;98058.59;5107676;28;20223;-71
2022/11/16 03:36:23;;;;;;;39.92;25.10;;;;;;;7.04;90.16;98063.88;5107313;28;20039;-71
2022/11/16 03:38:52;;;;;;;41.80;25.92;;;;;;;7.54;90.26;98125.81;5108269;28;20085;-71
2022/11/16 03:41:22;;;;;;;38.17;26.00;;;;;;;7.54;90.32;98114.41;5108070;28;20085;-71
2022/11/16 03:43:50;;;;;;;41.42;25.25;;;;;;;7.55;90.35;98113.47;5108478;28;20044;-71
2022/11/16 03:46:18;;;;;;;38.55;23.67;;;;;;;7.28;90.25;98065.94;5108515;28;20036;-71
2022/11/16 03:48:44;;;;;;;41.67;25.27;;;;;;;7.54;90.48;98111.78;5107204;28;20044;-71
2022/11/16 03:51:13;;;;;;;35.30;21.92;;;;;;;7.52;90.41;98109.25;5107558;28;20215;-72
2022/11/16 03:53:40;;;;;;;37.25;24.13;;;;;;;7.51;90.41;98096.16;5108001;28;20040;-71
2022/11/16 03:56:07;;;;;;;35.47;22.50;;;;;;;7.50;90.56;98097.94;5108220;28;20051;-72
2022/11/16 03:58:34;;;;;;;38.92;24.80;;;;;;;7.49;90.53;98098.88;5107593;28;20081;-71
2022/11/16 04:01:02;;;;;;;42.38;24.15;;;;;;;7.49;90.68;98092.78;5107560;28;20090;-72
2022/11/16 04:03:28;;;;;;;32.97;22.98;;;;;;;7.48;90.86;98091.91;5106925;28;20138;-72
2022/11/16 04:25:24;;;;;;;38.53;24.45;;;;;;;7.37;91.44;98068.03;5106079;28;20062;-72
2022/11/16 04:39:07;;;;;;;34.17;20.92;;;;;;;7.36;91.51;98042.59;5065291;28;20045;-72
2022/11/16 04:44:19;;;;;;;38.72;23.48;;;;;;;7.34;91.74;98036.59;5106935;28;20177;-72
2022/11/16 04:49:30;;;;;;;39.45;22.13;;;;;;;7.33;91.93;98034.91;5105488;28;20063;-72
2022/11/16 04:51:57;;;;;;;38.42;24.15;;;;;;;6.55;91.91;97921.16;5106839;28;20218;-71
2022/11/16 04:54:23;;;;;;;40.35;25.25;;;;;;;6.97;92.02;97978.25;5106781;28;20295;-71
2022/11/16 04:56:51;;;;;;;37.45;23.40;;;;;;;7.29;92.23;98028.94;5106637;28;20085;-71
2022/11/16 04:59:18;;;;;;;41.70;25.08;;;;;;;7.27;92.43;98041.38;5106671;28;20329;-71
2022/11/16 05:04:29;;;;;;;34.85;23.08;;;;;;;7.29;92.54;98042.13;5106299;28;20307;-72
2022/11/16 05:06:56;;;;;;;42.17;24.50;;;;;;;7.28;92.50;98052.75;5106190;28;20043;-72
2022/11/16 05:09:23;;;;;;;35.33;23.42;;;;;;;7.31;92.43;98050.78;5106221;28;20288;-71
2022/11/16 05:11:50;;;;;;;36.35;24.35;;;;;;;7.34;92.35;98041.84;5105619;28;20044;-71
2022/11/16 05:14:18;;;;;;;44.28;24.65;;;;;;;6.87;92.12;97981.56;5106265;28;20050;-71
2022/11/16 05:16:44;;;;;;;45.17;25.20;;;;;;;7.32;92.18;98035.81;5105829;28;20051;-72
2022/11/16 05:21:55;;;;;;;39.70;22.27;;;;;;;7.13;92.11;98012.41;5106028;28;20047;-71
2022/11/16 05:24:34;;;;;;;36.75;24.17;;;;;;;4.37;91.91;97549.84;5106242;28;20398;-71
2022/11/16 05:27:01;;;;;;;37.90;23.63;;;;;;;7.30;92.26;98035.06;5106183;28;20089;-71
2022/11/16 05:29:29;;;;;;;45.58;25.17;;;;;;;6.95;92.39;97980.13;5105019;28;20361;-71
2022/11/16 05:31:56;;;;;;;39.20;23.73;;;;;;;7.26;92.41;98039.66;5106185;28;20043;-71
2022/11/16 05:34:23;;;;;;;52.10;26.25;;;;;;;7.27;92.29;98030.81;5106150;28;20085;-71
2022/11/16 05:36:50;;;;;;;41.42;25.58;;;;;;;7.24;92.30;98030.16;5105802;28;20044;-71
2022/11/16 05:39:17;;;;;;;39.10;24.45;;;;;;;7.07;92.48;98004.88;5106054;28;20054;-71
2022/11/16 05:41:43;;;;;;;40.42;24.33;;;;;;;7.25;92.46;98032.72;5105730;28;20049;-71
2022/11/16 05:44:10;;;;;;;42.10;26.08;;;;;;;7.27;92.36;98037.88;5105988;28;20052;-72
2022/11/16 05:46:39;;;;;;;38.03;23.45;;;;;;;7.18;92.36;98022.66;5105780;28;20066;-72
2022/11/16 05:49:07;;;;;;;39.95;24.02;;;;;;;7.28;92.23;98026.41;5104803;28;20235;-71
2022/11/16 05:51:34;;;;;;;37.40;25.02;;;;;;;7.09;92.18;97981.91;5105489;28;20064;-71
2022/11/16 05:54:02;;;;;;;36.75;25.98;;;;;;;7.26;92.15;98009.84;5105552;28;20051;-70
2022/11/16 05:56:28;;;;;;;35.38;24.02;;;;;;;5.85;92.14;97774.69;5105912;28;20051;-70
2022/11/16 05:58:56;;;;;;;37.88;24.05;;;;;;;7.27;92.01;98001.00;5105778;28;20047;-71
2022/11/16 06:01:23;;;;;;;36.85;24.55;;;;;;;7.28;92.03;97998.25;5104541;28;20036;-71
2022/11/16 06:03:51;;;;;;;39.30;26.60;;;;;;;7.30;91.97;98006.06;5105287;28;20302;-71
2022/11/16 06:06:18;;;;;;;36.60;23.88;;;;;;;7.31;91.84;98002.47;5104462;28;20040;-70
2022/11/16 06:08:45;;;;;;;35.60;23.95;;;;;;;7.32;91.80;98005.03;5105752;28;20044;-71
2022/11/16 06:11:13;;;;;;;39.05;23.95;;;;;;;7.34;91.64;98011.06;5104754;28;20204;-70
2022/11/16 06:13:40;;;;;;;34.35;21.80;;;;;;;7.36;91.59;98009.19;5105736;28;20055;-71
2022/11/16 06:16:07;;;;;;;35.42;22.70;;;;;;;7.35;91.44;98014.56;5105800;28;20044;-71
2022/11/16 06:18:37;;;;;;;31.38;20.45;;;;;;;7.35;91.31;98014.56;5105304;28;20303;-70
2022/11/16 06:21:06;;;;;;;39.08;22.73;;;;;;;7.35;91.57;98012.78;5105906;28;20044;-71
2022/11/16 06:23:33;;;;;;;34.55;22.38;;;;;;;7.17;91.28;97990.19;5105396;28;20047;-71
2022/11/16 06:26:00;;;;;;;35.22;21.83;;;;;;;7.35;91.33;98018.03;5104659;28;20048;-71
2022/11/16 06:28:27;;;;;;;35.20;23.42;;;;;;;7.34;91.20;98021.63;5105260;28;20052;-71
2022/11/16 06:30:54;;;;;;;36.50;22.60;;;;;;;7.33;91.44;98014.66;5108890;28;20044;-71
2022/11/16 06:33:21;;;;;;;40.42;25.63;;;;;;;7.33;91.32;98022.56;5109757;28;20202;-71
2022/11/16 06:35:48;;;;;;;34.90;23.08;;;;;;;7.32;91.25;98017.34;5092278;28;20040;-70
2022/11/16 06:38:18;;;;;;;31.98;22.15;;;;;;;7.32;91.16;98012.94;5108052;28;20295;-71
2022/11/16 06:40:45;;;;;;;36.70;22.75;;;;;;;7.14;91.10;97977.19;5109241;28;20093;-70
2022/11/16 06:43:12;;;;;;;33.53;22.42;;;;;;;7.32;91.13;98004.19;5109263;28;20105;-71
2022/11/16 06:45:38;;;;;;;36.47;22.67;;;;;;;7.34;90.92;98008.44;5091751;28;20040;-71
2022/11/16 06:48:05;;;;;;;30.25;21.38;;;;;;;7.33;91.11;97998.00;5109104;28;20090;-71
2022/11/16 06:50:32;;;;;;;33.10;22.17;;;;;;;7.32;91.05;97991.00;5109040;28;20319;-71
2022/11/16 06:52:59;;;;;;;35.05;21.75;;;;;;;7.32;91.14;97996.28;5107950;28;20044;-71
2022/11/16 06:55:28;;;;;;;37.40;24.52;;;;;;;6.66;90.64;97891.53;5109245;28;20044;-71
2022/11/16 06:57:55;;;;;;;32.00;22.00;;;;;;;7.33;91.03;97982.19;5108777;28;20040;-71
2022/11/16 07:00:21;;;;;;;33.53;21.17;;;;;;;7.34;90.89;97979.44;5107841;28;20051;-71
2022/11/16 07:02:48;;;;;;;38.67;23.05;;;;;;;7.35;90.88;97980.28;5108899;28;20054;-70
2022/11/16 07:05:15;;;;;;;30.90;21.60;;;;;;;7.03;90.73;97927.81;5108849;28;20044;-71
2022/11/16 07:07:42;;;;;;;37.08;22.90;;;;;;;7.36;90.93;98001.28;5108499;28;20046;-71
2022/11/16 07:10:09;;;;;;;34.15;22.83;;;;;;;7.38;90.70;97980.09;5108842;28;20288;-71
2022/11/16 07:12:38;;;;;;;33.03;21.85;;;;;;;7.34;90.76;97976.81;5108705;28;20044;-71
2022/11/16 07:15:05;;;;;;;36.72;23.27;;;;;;;7.34;90.82;97970.69;5108400;28;20070;-71
2022/11/16 07:17:32;;;;;;;33.08;20.83;;;;;;;7.33;90.79;97980.41;5108522;28;20223;-71
2022/11/16 07:19:59;;;;;;;35.67;24.25;;;;;;;7.33;90.78;97971.63;5108212;28;20188;-71
2022/11/16 07:22:26;;;;;;;32.80;23.45;;;;;;;7.31;90.81;97969.06;5108173;28;20062;-70
2022/11/16 07:24:52;;;;;;;29.92;21.20;;;;;;;7.32;90.81;97976.03;5107459;28;20036;-71
2022/11/16 07:27:19;;;;;;;26.95;18.63;;;;;;;7.34;90.75;97979.44;5108294;28;20043;-71
2022/11/16 07:29:47;;;;;;;24.85;16.65;;;;;;;7.36;90.48;97977.56;5107971;28;20048;-70
2022/11/16 07:32:14;;;;;;;26.52;17.52;;;;;;;7.24;90.44;97954.59;5108523;28;20040;-71
2022/11/16 07:34:41;;;;;;;26.65;20.23;;;;;;;7.38;90.46;97977.47;5107180;28;20043;-71
2022/11/16 07:37:07;;;;;;;27.10;19.52;;;;;;;7.20;90.41;97939.06;5108434;28;20169;-71
2022/11/16 07:39:34;;;;;;;27.38;19.75;;;;;;;7.34;90.51;97973.34;5107847;28;20069;-71
2022/11/16 07:42:01;;;;;;;28.38;19.13;;;;;;;7.33;90.41;97982.19;5107918;28;20040;-70
2022/11/16 07:44:27;;;;;;;31.92;21.35;;;;;;;7.34;90.42;97981.25;5107671;28;20044;-71
2022/11/16 07:46:55;;;;;;;28.25;20.48;;;;;;;7.34;90.55;97979.44;5107643;28;20055;-71
2022/11/16 07:49:22;;;;;;;30.65;20.30;;;;;;;7.36;90.67;97982.00;5106668;28;20047;-71
2022/11/16 07:51:49;;;;;;;36.17;23.10;;;;;;;7.37;90.75;97981.03;5107910;28;20048;-71
2022/11/16 07:54:16;;;;;;;34.03;21.58;;;;;;;7.38;90.70;97980.94;5107522;28;20211;-71
2022/11/16 07:56:42;;;;;;;32.90;22.25;;;;;;;7.37;90.77;97975.78;5106836;28;20036;-71
2022/11/16 07:59:09;;;;;;;31.15;21.98;;;;;;;7.40;90.73;97985.28;5106666;28;20089;-71
2022/11/16 08:01:36;;;;;;;33.95;21.80;;;;;;;7.10;90.57;97936.19;5106522;28;20039;-71
2022/11/16 08:04:04;;;;;;;33.67;23.95;;;;;;;7.41;90.72;97979.91;5108010;28;20054;-70
2022/11/16 08:06:32;;;;;;;33.85;22.42;;;;;;;7.30;90.86;97961.25;5106442;28;20043;-71
2022/11/16 08:08:59;;;;;;;33.45;24.00;;;;;;;6.90;90.71;97911.09;5107290;28;20044;-71
2022/11/16 08:11:26;;;;;;;35.67;23.98;;;;;;;7.42;90.66;97975.47;5107503;28;20284;-71
2022/11/16 08:13:53;;;;;;;37.63;21.88;;;;;;;7.41;90.59;97982.53;5107450;28;20227;-71
2022/11/16 08:16:22;;;;;;;32.83;22.65;;;;;;;7.43;90.69;97978.00;5107260;28;20040;-71
2022/11/16 08:18:49;;;;;;;31.20;21.73;;;;;;;7.43;90.61;97979.81;5106793;28;20253;-71
2022/11/16 08:21:18;;;;;;;28.55;21.25;;;;;;;7.29;90.43;97960.41;5107105;28;20052;-71
2022/11/16 08:23:45;;;;;;;26.52;19.63;;;;;;;7.08;90.51;97932.81;5107273;28;20288;-70
2022/11/16 08:26:15;;;;;;;27.70;20.25;;;;;;;7.38;90.57;97991.50;5107194;28;20054;-71
2022/11/16 08:28:42;;;;;;;24.65;18.33;;;;;;;7.40;90.88;97980.00;5107225;28;20052;-71
2022/11/16 08:31:12;;;;;;;27.38;20.33;;;;;;;7.22;90.76;97945.94;5105992;28;20044;-71
2022/11/16 08:33:39;;;;;;;26.27;17.17;;;;;;;7.41;90.80;97979.91;5106974;28;20044;-71
2022/11/16 08:36:07;;;;;;;24.50;18.77;;;;;;;7.44;90.75;97984.13;5106980;28;20287;-71
2022/11/16 08:38:36;;;;;;;26.05;18.35;;;;;;;7.46;90.62;97988.38;5106710;28;20044;-71
2022/11/16 08:41:02;;;;;;;26.33;18.33;;;;;;;7.32;90.65;97956.75;5105515;28;20104;-71
2022/11/16 08:43:29;;;;;;;24.00;18.42;;;;;;;7.50;90.68;97981.09;5106788;28;20056;-71
2022/11/16 08:45:57;;;;;;;24.48;17.40;;;;;;;7.52;90.61;97987.13;5106776;28;20044;-71
2022/11/16 08:48:23;;;;;;;28.27;19.90;;;;;;;7.52;90.61;97987.97;5105758;28;20058;-70
2022/11/16 08:50:50;;;;;;;28.98;20.92;;;;;;;7.04;90.79;97932.16;5106315;28;20059;-71
2022/11/16 08:53:17;;;;;;;27.77;20.25;;;;;;;7.53;90.75;97984.38;5105529;28;20044;-70
2022/11/16 08:55:45;;;;;;;29.17;18.98;;;;;;;7.54;90.59;97980.81;5106672;28;20085;-70
2022/11/16 08:58:12;;;;;;;26.90;20.23;;;;;;;7.55;90.64;97987.78;5106375;28;20036;-71
2022/11/16 09:00:40;;;;;;;30.05;20.95;;;;;;;7.56;90.59;97993.88;5105757;28;20048;-71
2022/11/16 09:03:06;;;;;;;30.35;20.23;;;;;;;7.56;90.65;97993.88;5106479;28;20044;-70
2022/11/16 09:05:33;;;;;;;25.77;19.02;;;;;;;7.56;90.70;97997.38;5106769;28;20085;-71
2022/11/16 09:08:00;;;;;;;25.67;17.20;;;;;;;7.57;90.64;98000.84;5106458;28;20066;-70
2022/11/16 09:10:27;;;;;;;24.50;17.40;;;;;;;7.57;90.70;98001.69;5106457;28;20288;-70
2022/11/16 09:12:55;;;;;;;24.48;17.35;;;;;;;7.44;90.62;97989.41;5106335;28;20039;-71
2022/11/16 09:15:21;;;;;;;23.20;17.02;;;;;;;7.58;90.67;98016.56;5106408;28;20070;-70
2022/11/16 09:17:53;;;;;;;30.63;22.23;;;;;;;7.58;90.55;98011.31;5105386;28;20077;-71
2022/11/16 09:20:20;;;;;;;25.92;18.17;;;;;;;7.10;90.54;97933.56;5106418;28;20068;-71
2022/11/16 09:22:47;;;;;;;31.52;18.45;;;;;;;7.62;90.67;98004.03;5105661;28;20036;-71
2022/11/16 09:25:14;;;;;;;23.20;16.55;;;;;;;7.63;90.68;98006.56;5106209;28;20325;-70
2022/11/16 09:27:41;;;;;;;21.80;14.85;;;;;;;7.64;90.68;98003.00;5106153;28;20044;-71
2022/11/16 09:30:11;;;;;;;21.33;14.35;;;;;;;7.64;90.56;98002.16;5105923;28;20238;-70
2022/11/16 09:32:38;;;;;;;20.40;15.52;;;;;;;7.64;90.56;98000.38;5106099;28;20086;-71
2022/11/16 09:35:05;;;;;;;21.90;15.60;;;;;;;7.64;90.53;97988.97;5104883;28;20051;-71
2022/11/16 09:37:32;;;;;;;21.88;16.42;;;;;;;7.64;90.46;97992.44;5106072;28;20040;-71
2022/11/16 09:39:58;;;;;;;21.13;15.40;;;;;;;7.65;90.53;98003.84;5105753;28;20300;-71
2022/11/16 09:42:40;;;;;;;22.00;15.15;;;;;;;7.64;90.37;97997.72;5105467;28;20056;-71
2022/11/16 09:45:18;;;;;;;20.40;15.40;;;;;;;7.63;90.43;97996.03;5105520;28;20051;-70
2022/11/16 09:47:49;;;;;;;22.02;15.68;;;;;;;7.63;90.36;97996.03;5105287;28;20105;-71
2022/11/16 09:50:34;;;;;;;21.95;15.80;;;;;;;7.66;90.50;98001.09;5105110;28;20121;-71
2022/11/16 09:53:11;;;;;;;24.13;16.95;;;;;;;7.65;90.27;97999.41;5104624;28;20145;-70
2022/11/16 09:55:46;;;;;;;22.35;15.52;;;;;;;7.64;90.44;98007.44;5105719;28;20054;-71
2022/11/16 09:58:17;;;;;;;21.73;16.52;;;;;;;7.64;90.35;98000.38;5104640;28;20044;-70
2022/11/16 10:00:52;;;;;;;23.30;16.20;;;;;;;7.66;90.37;98005.53;5105436;28;20044;-71
2022/11/16 10:03:19;;;;;;;23.08;16.65;;;;;;;7.66;90.26;97992.34;5106513;28;20051;-71
2022/11/16 10:05:55;;;;;;;26.02;18.08;;;;;;;7.64;90.31;97999.50;5108558;28;20189;-71
2022/11/16 10:08:27;;;;;;;24.42;16.05;;;;;;;7.63;90.33;98001.31;5108838;28;20048;-71
2022/11/16 10:11:03;;;;;;;21.05;15.30;;;;;;;7.64;90.26;97996.88;5109763;28;20052;-70
2022/11/16 10:13:45;;;;;;;26.35;18.33;;;;;;;7.63;90.32;97992.56;5109795;28;20118;-70
2022/11/16 10:16:22;;;;;;;22.05;16.55;;;;;;;7.64;90.26;97988.97;5109734;28;20048;-70
2022/11/16 10:18:55;;;;;;;19.67;14.73;;;;;;;7.66;90.10;97987.06;5109098;28;20040;-70
2022/11/16 10:21:41;;;;;;;21.20;14.63;;;;;;;7.66;90.15;97982.66;5109083;28;20044;-70
2022/11/16 10:24:24;;;;;;;21.00;15.25;;;;;;;7.66;90.07;97981.81;5109061;28;20067;-70
2022/11/16 10:27:03;;;;;;;20.23;15.63;;;;;;;7.67;90.14;97981.69;5108784;28;20054;-71
2022/11/16 10:29:48;;;;;;;20.90;15.18;;;;;;;7.62;90.09;97965.34;5108888;28;20047;-71
2022/11/16 10:32:24;;;;;;;21.00;14.32;;;;;;;7.04;89.81;97863.66;5108451;28;20043;-70
2022/11/16 10:34:54;;;;;;;19.20;15.20;;;;;;;7.70;90.01;97976.22;5108842;28;20085;-70
2022/11/16 10:37:22;;;;;;;19.67;15.13;;;;;;;7.73;90.00;97971.69;5108095;28;20066;-70
2022/11/16 10:39:51;;;;;;;19.92;15.25;;;;;;;7.74;90.05;97963.69;5109068;28;20066;-71
2022/11/16 10:42:26;;;;;;;18.05;13.73;;;;;;;7.75;89.81;97965.38;5109145;28;20280;-71
2022/11/16 10:44:57;;;;;;;;;;;;;;;7.69;90.08;97961.34;5109410;28;20081;-70
2022/11/16 10:47:32;;;;;;;17.00;12.85;;;;;;;7.36;89.91;97897.66;5109229;28;19934;-71
2022/11/16 10:50:01;;;;;;;20.40;15.23;;;;;;;7.76;90.04;97960.94;5108764;28;20052;-71
2022/11/16 10:52:28;;;;;;;20.08;15.00;;;;;;;7.78;90.02;97965.19;5108871;28;20193;-71
2022/11/16 10:54:54;;;;;;;18.35;13.40;;;;;;;7.58;89.75;97947.19;5109043;28;20102;-71
2022/11/16 10:57:23;;;;;;;18.42;12.65;;;;;;;7.79;89.94;97966.03;5108768;28;20043;-71
2022/11/16 10:59:54;;;;;;;15.50;12.07;;;;;;;7.79;89.97;97961.59;5108456;28;20073;-71
2022/11/16 11:02:34;;;;;;;20.23;14.20;;;;;;;7.80;90.09;97965.06;5108399;28;20085;-70
2022/11/16 11:05:03;;;;;;;20.98;14.75;;;;;;;7.81;90.20;97967.63;5108101;28;20067;-71
2022/11/16 11:07:31;;;;;;;18.23;14.18;;;;;;;7.79;90.35;97966.88;5108821;28;20036;-71
2022/11/16 11:09:58;;;;;;;16.88;13.40;;;;;;;7.15;90.14;97846.31;5107511;28;20040;-71
2022/11/16 11:12:39;;;;;;;16.52;13.95;;;;;;;7.46;89.95;97904.00;5108323;28;20051;-70
2022/11/16 11:15:21;;;;;;;13.90;11.70;;;;;;;7.11;89.91;97842.19;5106835;28;20405;-71
2022/11/16 11:17:50;;;;;;;16.05;12.60;;;;;;;7.80;89.95;97958.00;5108451;28;20036;-72
2022/11/16 11:20:23;;;;;;;16.48;13.13;;;;;;;7.62;89.86;97922.31;5108435;28;20048;-71
2022/11/16 11:22:55;;;;;;;18.55;16.70;;;;;;;7.32;89.89;97873.25;5108127;28;20303;-71
2022/11/16 11:25:25;;;;;;;15.82;14.18;;;;;;;7.56;89.84;97928.81;5108464;28;20044;-71
2022/11/16 11:28:03;;;;;;;14.95;13.35;;;;;;;7.83;89.74;97957.81;5108230;28;20086;-71
2022/11/16 11:30:30;;;;;;;15.88;14.23;;;;;;;7.68;89.87;97938.56;5108551;28;20067;-70
2022/11/16 11:32:59;;;;;;;15.50;11.23;;;;;;;7.85;89.67;97962.97;5107881;28;20071;-70
2022/11/16 11:35:28;;;;;;;16.15;13.60;;;;;;;7.86;89.91;97956.75;5108417;28;20288;-70
2022/11/16 11:37:57;;;;;;;14.65;11.57;;;;;;;7.15;90.26;97833.13;5106671;28;20334;-70
2022/11/16 11:40:25;;;;;;;13.07;10.35;;;;;;;7.87;90.00;97945.25;5107441;28;20065;-70
2022/11/16 11:42:58;;;;;;;13.18;10.45;;;;;;;7.87;90.01;97951.38;5107484;28;20098;-71
2022/11/16 11:45:36;;;;;;;12.57;10.63;;;;;;;7.67;90.11;97915.78;5107977;28;20093;-70
2022/11/16 11:48:15;;;;;;;13.55;10.88;;;;;;;7.88;90.08;97952.22;5107451;28;20040;-71
2022/11/16 11:50:49;;;;;;;14.35;10.63;;;;;;;7.89;90.00;97952.13;5106639;28;20058;-71
2022/11/16 11:53:29;;;;;;;14.50;10.43;;;;;;;6.00;90.01;97631.75;5107932;28;20044;-71
2022/11/16 11:55:59;;;;;;;12.43;10.35;;;;;;;6.94;89.76;97794.06;5108034;28;20048;-71
2022/11/16 11:58:30;;;;;;;13.45;9.90;;;;;;;7.92;89.75;97946.66;5106653;28;20032;-73
2022/11/16 12:01:15;;;;;;;10.85;8.90;;;;;;;7.95;89.69;97942.97;5107737;28;20054;-70
2022/11/16 12:04:39;;;;;;;11.73;9.10;;;;;;;7.95;89.48;97940.31;5107818;28;20052;-70
2022/11/16 12:07:17;;;;;;;10.30;8.52;;;;;;;7.93;89.77;97940.41;5106289;28;20089;-70
2022/11/16 12:09:52;;;;;;;11.32;8.57;;;;;;;7.96;89.54;97939.38;5107189;28;20066;-70
2022/11/16 12:12:34;;;;;;;13.05;9.45;;;;;;;7.98;89.37;97943.59;5107180;28;20044;-70
2022/11/16 12:15:13;;;;;;;11.07;9.70;;;;;;;7.99;89.31;97940.00;5107225;28;20043;-71
2022/11/16 12:17:49;;;;;;;10.68;8.27;;;;;;;7.99;89.45;97942.66;5106061;28;20086;-70
2022/11/16 12:20:28;;;;;;;12.15;8.85;;;;;;;7.36;89.50;97845.78;5107152;28;20044;-71
2022/11/16 12:23:11;;;;;;;10.85;8.55;;;;;;;7.36;89.15;97826.50;5106616;28;20066;-70
2022/11/16 12:25:46;;;;;;;12.05;8.90;;;;;;;8.01;89.39;97927.56;5107081;28;20203;-70
2022/11/16 12:28:24;;;;;;;11.90;8.90;;;;;;;8.03;89.40;97924.81;5106004;28;20044;-72